sensor_id;sensor_type;location;lat;lon;timestamp;pressure;altitude;pressure_sealevel;temperature;humidity
20156;BME280;10238;49.556;10.956;2023-04-26T00:01:04;98258.22;;;5.76;100.00
20156;BME280;10238;49.556;10.956;2023-04-26T00:03:51;98263.06;;;5.71;100.00
20156;BME280;10238;49.556;10.956;2023-04-26T00:06:39;98258.28;;;5.65;100.00
20156;BME280;10238;49.556;10.956;2023-04-26T00:09:28;98261.16;;;5.62;100.00
20156;BME280;10238;49.556;10.956;2023-04-26T00:12:16;98260.56;;;5.59;100.00
20156;BME280;10238;49.556;10.956;2023-04-26T00:15:05;98268.84;;;5.54;100.00
20156;BME280;10238;49.556;10.956;2023-04-26T00:17:52;98256.91;;;5.50;100.00
20156;BME280;10238;49.556;10.956;2023-04-26T00:20:40;98265.91;;;5.48;100.00
20156;BME280;10238;49.556;10.956;2023-04-26T00:23:27;98259.34;;;5.42;100.00
20156;BME280;10238;49.556;10.956;2023-04-26T00:26:16;98264.25;;;5.36;100.00
20156;BME280;10238;49.556;10.956;2023-04-26T00:29:04;98262.25;;;5.28;100.00
20156;BME280;10238;49.556;10.956;2023-04-26T00:31:51;98262.50;;;5.25;100.00
20156;BME280;10238;49.556;10.956;2023-04-26T00:34:39;98263.47;;;5.24;100.00
20156;BME280;10238;49.556;10.956;2023-04-26T00:37:27;98263.34;;;5.15;100.00
20156;BME280;10238;49.556;10.956;2023-04-26T00:40:14;98261.81;;;5.12;100.00
20156;BME280;10238;49.556;10.956;2023-04-26T00:43:05;98265.91;;;5.05;100.00
20156;BME280;10238;49.556;10.956;2023-04-26T00:45:53;98261.97;;;5.00;100.00
20156;BME280;10238;49.556;10.956;2023-04-26T00:48:41;98264.13;;;4.95;100.00
20156;BME280;10238;49.556;10.956;2023-04-26T00:51:29;98264.22;;;4.93;100.00
20156;BME280;10238;49.556;10.956;2023-04-26T00:54:19;98266.41;;;4.88;100.00
20156;BME280;10238;49.556;10.956;2023-04-26T00:57:07;98269.66;;;4.81;100.00
20156;BME280;10238;49.556;10.956;2023-04-26T00:59:57;98277.66;;;4.79;100.00
20156;BME280;10238;49.556;10.956;2023-04-26T01:02:44;98275.16;;;4.78;100.00
20156;BME280;10238;49.556;10.956;2023-04-26T01:05:32;98277.91;;;4.76;100.00
20156;BME280;10238;49.556;10.956;2023-04-26T01:08:23;98280.91;;;4.72;100.00
20156;BME280;10238;49.556;10.956;2023-04-26T01:11:11;98277.91;;;4.65;100.00
20156;BME280;10238;49.556;10.956;2023-04-26T01:13:58;98283.41;;;4.62;100.00
20156;BME280;10238;49.556;10.956;2023-04-26T01:16:49;98281.38;;;4.55;100.00
20156;BME280;10238;49.556;10.956;2023-04-26T01:19:46;98283.28;;;4.53;100.00
20156;BME280;10238;49.556;10.956;2023-04-26T01:22:35;98290.56;;;4.49;100.00
20156;BME280;10238;49.556;10.956;2023-04-26T01:25:22;98290.22;;;4.42;100.00
20156;BME280;10238;49.556;10.956;2023-04-26T01:28:10;98287.09;;;4.37;100.00
20156;BME280;10238;49.556;10.956;2023-04-26T01:30:57;98288.41;;;4.32;100.00
20156;BME280;10238;49.556;10.956;2023-04-26T01:33:45;98288.75;;;4.27;100.00
20156;BME280;10238;49.556;10.956;2023-04-26T01:36:32;98284.59;;;4.25;100.00
20156;BME280;10238;49.556;10.956;2023-04-26T01:39:21;98282.91;;;4.24;100.00
20156;BME280;10238;49.556;10.956;2023-04-26T01:42:09;98283.38;;;4.18;100.00
20156;BME280;10238;49.556;10.956;2023-04-26T01:44:56;98284.19;;;4.18;100.00
20156;BME280;10238;49.556;10.956;2023-04-26T01:47:44;98288.25;;;4.11;100.00
20156;BME280;10238;49.556;10.956;2023-04-26T01:50:31;98291.47;;;4.04;100.00
20156;BME280;10238;49.556;10.956;2023-04-26T01:53:19;98295.28;;;4.00;100.00
20156;BME280;10238;49.556;10.956;2023-04-26T01:56:09;98296.38;;;3.97;100.00
20156;BME280;10238;49.556;10.956;2023-04-26T01:58:57;98297.63;;;3.92;100.00
20156;BME280;10238;49.556;10.956;2023-04-26T02:01:44;98303.88;;;3.91;100.00
20156;BME280;10238;49.556;10.956;2023-04-26T02:04:32;98306.72;;;3.88;100.00
20156;BME280;10238;49.556;10.956;2023-04-26T02:07:21;98306.00;;;3.86;100.00
20156;BME280;10238;49.556;10.956;2023-04-26T02:10:09;98303.00;;;3.79;100.00
20156;BME280;10238;49.556;10.956;2023-04-26T02:12:58;98308.69;;;3.73;100.00
20156;BME280;10238;49.556;10.956;2023-04-26T02:15:46;98301.03;;;3.70;100.00
20156;BME280;10238;49.556;10.956;2023-04-26T02:18:33;98300.44;;;3.67;100.00
20156;BME280;10238;49.556;10.956;2023-04-26T02:21:22;98304.97;;;3.65;100.00
20156;BME280;10238;49.556;10.956;2023-04-26T02:24:10;98308.78;;;3.61;100.00
20156;BME280;10238;49.556;10.956;2023-04-26T02:26:57;98301.13;;;3.58;100.00
20156;BME280;10238;49.556;10.956;2023-04-26T02:29:50;98297.28;;;3.51;100.00
20156;BME280;10238;49.556;10.956;2023-04-26T02:32:38;98297.50;;;3.48;100.00
20156;BME280;10238;49.556;10.956;2023-04-26T02:35:26;98303.09;;;3.43;100.00
20156;BME280;10238;49.556;10.956;2023-04-26T02:38:13;98302.22;;;3.43;100.00
20156;BME280;10238;49.556;10.956;2023-04-26T02:41:02;98305.19;;;3.38;100.00
20156;BME280;10238;49.556;10.956;2023-04-26T02:43:50;98302.19;;;3.32;100.00
20156;BME280;10238;49.556;10.956;2023-04-26T02:46:39;98304.31;;;3.27;100.00
20156;BME280;10238;49.556;10.956;2023-04-26T02:49:27;98307.47;;;3.19;100.00
20156;BME280;10238;49.556;10.956;2023-04-26T02:52:14;98305.38;;;3.12;100.00
20156;BME280;10238;49.556;10.956;2023-04-26T02:55:02;98309.41;;;3.05;100.00
20156;BME280;10238;49.556;10.956;2023-04-26T02:57:50;98306.28;;;3.00;100.00
20156;BME280;10238;49.556;10.956;2023-04-26T03:00:38;98308.41;;;2.95;100.00
20156;BME280;10238;49.556;10.956;2023-04-26T03:03:27;98307.75;;;2.91;100.00
20156;BME280;10238;49.556;10.956;2023-04-26T03:06:15;98302.00;;;2.86;100.00
20156;BME280;10238;49.556;10.956;2023-04-26T03:09:02;98310.09;;;2.83;100.00
20156;BME280;10238;49.556;10.956;2023-04-26T03:11:51;98310.53;;;2.77;100.00
20156;BME280;10238;49.556;10.956;2023-04-26T03:14:42;98322.19;;;2.73;100.00
20156;BME280;10238;49.556;10.956;2023-04-26T03:17:29;98315.69;;;2.66;100.00
20156;BME280;10238;49.556;10.956;2023-04-26T03:20:18;98319.56;;;2.61;100.00
20156;BME280;10238;49.556;10.956;2023-04-26T03:23:06;98326.94;;;2.56;100.00
20156;BME280;10238;49.556;10.956;2023-04-26T03:25:53;98329.25;;;2.48;100.00
20156;BME280;10238;49.556;10.956;2023-04-26T03:28:41;98326.09;;;2.43;100.00
20156;BME280;10238;49.556;10.956;2023-04-26T03:31:28;98331.66;;;2.38;100.00
20156;BME280;10238;49.556;10.956;2023-04-26T03:34:15;98332.09;;;2.32;100.00
20156;BME280;10238;49.556;10.956;2023-04-26T03:37:04;98332.38;;;2.28;100.00
20156;BME280;10238;49.556;10.956;2023-04-26T03:39:52;98331.75;;;2.24;100.00
20156;BME280;10238;49.556;10.956;2023-04-26T03:42:40;98333.00;;;2.18;100.00
20156;BME280;10238;49.556;10.956;2023-04-26T03:45:27;98333.41;;;2.12;100.00
20156;BME280;10238;49.556;10.956;2023-04-26T03:48:15;98330.28;;;2.07;100.00
20156;BME280;10238;49.556;10.956;2023-04-26T03:51:03;98334.03;;;2.03;100.00
20156;BME280;10238;49.556;10.956;2023-04-26T03:53:52;98339.69;;;1.97;100.00
20156;BME280;10238;49.556;10.956;2023-04-26T03:56:39;98334.88;;;1.91;100.00
20156;BME280;10238;49.556;10.956;2023-04-26T03:59:27;98335.28;;;1.85;100.00
20156;BME280;10238;49.556;10.956;2023-04-26T04:02:15;98336.50;;;1.80;100.00
20156;BME280;10238;49.556;10.956;2023-04-26T04:05:03;98337.75;;;1.74;100.00
20156;BME280;10238;49.556;10.956;2023-04-26T04:07:51;98340.66;;;1.70;100.00
20156;BME280;10238;49.556;10.956;2023-04-26T04:10:40;98352.19;;;1.67;100.00
20156;BME280;10238;49.556;10.956;2023-04-26T04:13:27;98353.53;;;1.60;100.00
20156;BME280;10238;49.556;10.956;2023-04-26T04:16:15;98354.69;;;1.56;100.00
20156;BME280;10238;49.556;10.956;2023-04-26T04:19:02;98353.19;;;1.52;100.00
20156;BME280;10238;49.556;10.956;2023-04-26T04:21:50;98356.84;;;1.50;100.00
20156;BME280;10238;49.556;10.956;2023-04-26T04:24:38;98351.81;;;1.47;100.00
20156;BME280;10238;49.556;10.956;2023-04-26T04:27:27;98356.50;;;1.42;100.00
20156;BME280;10238;49.556;10.956;2023-04-26T04:30:21;98357.53;;;1.39;100.00
20156;BME280;10238;49.556;10.956;2023-04-26T04:33:09;98359.44;;;1.37;100.00
20156;BME280;10238;49.556;10.956;2023-04-26T04:35:57;98371.75;;;1.35;100.00
20156;BME280;10238;49.556;10.956;2023-04-26T04:38:45;98375.53;;;1.31;100.00
20156;BME280;10238;49.556;10.956;2023-04-26T04:41:33;98370.47;;;1.28;100.00
20156;BME280;10238;49.556;10.956;2023-04-26T04:44:21;98367.97;;;1.27;100.00
20156;BME280;10238;49.556;10.956;2023-04-26T04:47:12;98370.69;;;1.25;100.00
20156;BME280;10238;49.556;10.956;2023-04-26T04:50:00;98369.09;;;1.23;100.00
20156;BME280;10238;49.556;10.956;2023-04-26T04:52:48;98379.66;;;1.21;100.00
20156;BME280;10238;49.556;10.956;2023-04-26T04:55:36;98384.91;;;1.21;100.00
20156;BME280;10238;49.556;10.956;2023-04-26T04:58:23;98381.53;;;1.19;100.00
20156;BME280;10238;49.556;10.956;2023-04-26T05:01:12;98379.84;;;1.18;100.00
20156;BME280;10238;49.556;10.956;2023-04-26T05:04:00;98382.56;;;1.17;100.00
20156;BME280;10238;49.556;10.956;2023-04-26T05:06:49;98385.72;;;1.22;100.00
20156;BME280;10238;49.556;10.956;2023-04-26T05:09:37;98379.25;;;1.27;100.00
20156;BME280;10238;49.556;10.956;2023-04-26T05:12:24;98391.22;;;1.31;100.00
20156;BME280;10238;49.556;10.956;2023-04-26T05:15:12;98389.53;;;1.30;100.00
20156;BME280;10238;49.556;10.956;2023-04-26T05:18:01;98388.03;;;1.40;100.00
20156;BME280;10238;49.556;10.956;2023-04-26T05:20:48;98394.94;;;1.41;100.00
20156;BME280;10238;49.556;10.956;2023-04-26T05:23:36;98402.59;;;1.44;100.00
20156;BME280;10238;49.556;10.956;2023-04-26T05:26:24;98393.22;;;1.54;100.00
20156;BME280;10238;49.556;10.956;2023-04-26T05:29:11;98402.91;;;1.66;100.00
20156;BME280;10238;49.556;10.956;2023-04-26T05:31:58;98396.13;;;1.76;100.00
20156;BME280;10238;49.556;10.956;2023-04-26T05:34:47;98401.28;;;1.78;100.00
20156;BME280;10238;49.556;10.956;2023-04-26T05:37:35;98406.94;;;1.84;100.00
20156;BME280;10238;49.556;10.956;2023-04-26T05:40:24;98410.31;;;1.86;100.00
20156;BME280;10238;49.556;10.956;2023-04-26T05:43:12;98417.78;;;1.92;100.00
20156;BME280;10238;49.556;10.956;2023-04-26T05:46:00;98413.06;;;1.97;100.00
20156;BME280;10238;49.556;10.956;2023-04-26T05:48:48;98420.44;;;2.05;100.00
20156;BME280;10238;49.556;10.956;2023-04-26T05:51:37;98422.56;;;2.12;100.00
20156;BME280;10238;49.556;10.956;2023-04-26T05:54:24;98422.91;;;2.20;100.00
20156;BME280;10238;49.556;10.956;2023-04-26T05:57:11;98425.84;;;2.28;100.00
20156;BME280;10238;49.556;10.956;2023-04-26T05:59:59;98432.25;;;2.37;100.00
20156;BME280;10238;49.556;10.956;2023-04-26T06:02:47;98431.34;;;2.38;100.00
20156;BME280;10238;49.556;10.956;2023-04-26T06:05:35;98430.59;;;2.49;100.00
20156;BME280;10238;49.556;10.956;2023-04-26T06:08:25;98435.00;;;2.61;100.00
20156;BME280;10238;49.556;10.956;2023-04-26T06:11:14;98433.66;;;2.68;100.00
20156;BME280;10238;49.556;10.956;2023-04-26T06:14:01;98436.06;;;2.71;100.00
20156;BME280;10238;49.556;10.956;2023-04-26T06:16:48;98430.19;;;2.80;100.00
20156;BME280;10238;49.556;10.956;2023-04-26T06:19:36;98435.34;;;2.94;100.00
20156;BME280;10238;49.556;10.956;2023-04-26T06:22:24;98439.84;;;3.17;100.00
20156;BME280;10238;49.556;10.956;2023-04-26T06:25:13;98446.13;;;3.27;100.00
20156;BME280;10238;49.556;10.956;2023-04-26T06:28:00;98439.72;;;3.31;100.00
20156;BME280;10238;49.556;10.956;2023-04-26T06:30:48;98430.97;;;3.43;100.00
20156;BME280;10238;49.556;10.956;2023-04-26T06:33:36;98428.94;;;3.59;100.00
20156;BME280;10238;49.556;10.956;2023-04-26T06:36:24;98426.50;;;3.68;100.00
20156;BME280;10238;49.556;10.956;2023-04-26T06:39:13;98423.47;;;3.85;100.00
20156;BME280;10238;49.556;10.956;2023-04-26T06:42:02;98430.16;;;4.02;100.00
20156;BME280;10238;49.556;10.956;2023-04-26T06:44:50;98429.00;;;4.17;100.00
20156;BME280;10238;49.556;10.956;2023-04-26T06:47:37;98428.94;;;4.29;100.00
20156;BME280;10238;49.556;10.956;2023-04-26T06:50:25;98427.28;;;4.39;100.00
20156;BME280;10238;49.556;10.956;2023-04-26T06:53:13;98421.94;;;4.52;100.00
20156;BME280;10238;49.556;10.956;2023-04-26T06:56:08;98435.38;;;4.71;100.00
20156;BME280;10238;49.556;10.956;2023-04-26T06:59:02;98428.97;;;4.86;100.00
20156;BME280;10238;49.556;10.956;2023-04-26T07:01:51;98423.22;;;5.03;100.00
20156;BME280;10238;49.556;10.956;2023-04-26T07:04:39;98426.09;;;5.22;100.00
20156;BME280;10238;49.556;10.956;2023-04-26T07:07:27;98426.56;;;5.38;100.00
20156;BME280;10238;49.556;10.956;2023-04-26T07:10:15;98423.47;;;5.55;100.00
20156;BME280;10238;49.556;10.956;2023-04-26T07:13:03;98423.19;;;5.80;100.00
20156;BME280;10238;49.556;10.956;2023-04-26T07:15:55;98427.47;;;6.03;100.00
20156;BME280;10238;49.556;10.956;2023-04-26T07:18:43;98419.97;;;6.19;100.00
20156;BME280;10238;49.556;10.956;2023-04-26T07:21:33;98411.56;;;6.46;100.00
20156;BME280;10238;49.556;10.956;2023-04-26T07:24:21;98419.50;;;6.67;100.00
20156;BME280;10238;49.556;10.956;2023-04-26T07:27:08;98411.69;;;7.16;100.00
20156;BME280;10238;49.556;10.956;2023-04-26T07:29:56;98411.72;;;7.55;100.00
20156;BME280;10238;49.556;10.956;2023-04-26T07:32:46;98410.84;;;7.85;100.00
20156;BME280;10238;49.556;10.956;2023-04-26T07:35:34;98401.94;;;8.14;100.00
20156;BME280;10238;49.556;10.956;2023-04-26T07:38:22;98412.69;;;8.51;100.00
20156;BME280;10238;49.556;10.956;2023-04-26T07:41:17;98407.25;;;8.81;100.00
20156;BME280;10238;49.556;10.956;2023-04-26T07:44:20;98400.91;;;9.38;100.00
20156;BME280;10238;49.556;10.956;2023-04-26T07:47:11;98409.63;;;9.84;100.00
20156;BME280;10238;49.556;10.956;2023-04-26T07:50:00;98402.63;;;10.63;100.00
20156;BME280;10238;49.556;10.956;2023-04-26T07:52:48;98402.34;;;10.91;100.00
20156;BME280;10238;49.556;10.956;2023-04-26T07:55:36;98390.75;;;11.52;96.04
20156;BME280;10238;49.556;10.956;2023-04-26T07:58:24;98396.38;;;11.90;90.28
20156;BME280;10238;49.556;10.956;2023-04-26T08:01:11;98387.44;;;11.99;91.81
20156;BME280;10238;49.556;10.956;2023-04-26T08:04:02;98379.34;;;12.41;89.94
20156;BME280;10238;49.556;10.956;2023-04-26T08:06:51;98392.19;;;12.85;84.63
20156;BME280;10238;49.556;10.956;2023-04-26T08:10:05;98389.00;;;12.98;82.39
20156;BME280;10238;49.556;10.956;2023-04-26T08:12:53;98391.94;;;13.35;81.59
20156;BME280;10238;49.556;10.956;2023-04-26T08:15:42;98392.56;;;13.61;81.84
20156;BME280;10238;49.556;10.956;2023-04-26T08:18:30;98382.25;;;14.19;81.47
20156;BME280;10238;49.556;10.956;2023-04-26T08:21:17;98382.50;;;14.77;76.13
20156;BME280;10238;49.556;10.956;2023-04-26T08:24:06;98391.66;;;14.83;70.99
20156;BME280;10238;49.556;10.956;2023-04-26T08:26:54;98385.31;;;15.50;71.56
20156;BME280;10238;49.556;10.956;2023-04-26T08:29:44;98380.03;;;15.86;64.47
20156;BME280;10238;49.556;10.956;2023-04-26T08:32:32;98378.09;;;15.80;62.29
20156;BME280;10238;49.556;10.956;2023-04-26T08:35:20;98373.31;;;16.11;64.11
20156;BME280;10238;49.556;10.956;2023-04-26T08:38:08;98376.38;;;16.08;62.64
20156;BME280;10238;49.556;10.956;2023-04-26T08:44:27;98378.00;;;16.23;63.98
20156;BME280;10238;49.556;10.956;2023-04-26T08:47:18;98373.00;;;16.20;60.84
20156;BME280;10238;49.556;10.956;2023-04-26T08:50:11;98369.94;;;16.23;60.49
20156;BME280;10238;49.556;10.956;2023-04-26T08:53:00;98376.53;;;16.21;60.50
20156;BME280;10238;49.556;10.956;2023-04-26T08:55:49;98367.81;;;16.19;59.26
20156;BME280;10238;49.556;10.956;2023-04-26T08:58:38;98372.56;;;16.17;58.37
20156;BME280;10238;49.556;10.956;2023-04-26T09:01:28;98371.59;;;16.03;58.54
20156;BME280;10238;49.556;10.956;2023-04-26T09:04:16;98375.72;;;16.06;59.75
20156;BME280;10238;49.556;10.956;2023-04-26T09:07:07;98373.59;;;16.01;59.08
20156;BME280;10238;49.556;10.956;2023-04-26T09:09:59;98370.97;;;15.87;61.39
20156;BME280;10238;49.556;10.956;2023-04-26T09:12:51;98377.00;;;15.74;60.00
20156;BME280;10238;49.556;10.956;2023-04-26T09:15:39;98373.13;;;15.62;60.90
20156;BME280;10238;49.556;10.956;2023-04-26T09:18:28;98374.03;;;15.55;59.97
20156;BME280;10238;49.556;10.956;2023-04-26T09:21:19;98376.72;;;15.55;58.96
20156;BME280;10238;49.556;10.956;2023-04-26T09:24:07;98372.75;;;15.51;58.93
20156;BME280;10238;49.556;10.956;2023-04-26T09:27:00;98363.88;;;15.50;59.59
20156;BME280;10238;49.556;10.956;2023-04-26T09:30:04;98360.56;;;15.48;59.46
20156;BME280;10238;49.556;10.956;2023-04-26T09:32:55;98357.78;;;15.56;59.29
20156;BME280;10238;49.556;10.956;2023-04-26T09:35:44;98370.25;;;15.64;60.60
20156;BME280;10238;49.556;10.956;2023-04-26T09:38:41;98360.75;;;15.61;60.02
20156;BME280;10238;49.556;10.956;2023-04-26T09:41:42;98361.38;;;15.63;60.20
20156;BME280;10238;49.556;10.956;2023-04-26T09:44:30;98368.41;;;15.79;60.98
20156;BME280;10238;49.556;10.956;2023-04-26T09:47:21;98352.44;;;16.06;59.14
20156;BME280;10238;49.556;10.956;2023-04-26T09:50:09;98352.00;;;16.24;54.94
20156;BME280;10238;49.556;10.956;2023-04-26T09:52:59;98351.53;;;16.56;59.26
20156;BME280;10238;49.556;10.956;2023-04-26T09:55:47;98353.28;;;16.91;58.40
20156;BME280;10238;49.556;10.956;2023-04-26T09:58:38;98350.72;;;17.04;58.12
20156;BME280;10238;49.556;10.956;2023-04-26T10:01:27;98351.66;;;17.24;58.09
20156;BME280;10238;49.556;10.956;2023-04-26T10:04:16;98346.56;;;17.36;57.89
20156;BME280;10238;49.556;10.956;2023-04-26T10:07:04;98341.75;;;17.52;55.90
20156;BME280;10238;49.556;10.956;2023-04-26T10:09:56;98341.59;;;17.60;54.69
20156;BME280;10238;49.556;10.956;2023-04-26T10:12:45;98343.56;;;17.45;55.56
20156;BME280;10238;49.556;10.956;2023-04-26T10:15:34;98346.81;;;17.41;53.76
20156;BME280;10238;49.556;10.956;2023-04-26T10:18:22;98351.28;;;17.27;52.11
20156;BME280;10238;49.556;10.956;2023-04-26T10:21:16;98340.69;;;17.19;51.02
20156;BME280;10238;49.556;10.956;2023-04-26T10:24:07;98345.97;;;17.06;51.27
20156;BME280;10238;49.556;10.956;2023-04-26T10:26:56;98340.50;;;16.93;51.94
20156;BME280;10238;49.556;10.956;2023-04-26T10:30:08;98340.63;;;16.85;53.42
20156;BME280;10238;49.556;10.956;2023-04-26T10:33:15;98340.53;;;16.72;52.76
20156;BME280;10238;49.556;10.956;2023-04-26T10:36:10;98333.25;;;16.66;51.74
20156;BME280;10238;49.556;10.956;2023-04-26T10:39:19;98342.84;;;16.54;51.17
20156;BME280;10238;49.556;10.956;2023-04-26T10:42:23;98336.59;;;16.47;51.64
20156;BME280;10238;49.556;10.956;2023-04-26T10:45:27;98332.88;;;16.48;52.27
20156;BME280;10238;49.556;10.956;2023-04-26T10:48:17;98330.84;;;16.50;53.16
20156;BME280;10238;49.556;10.956;2023-04-26T10:51:09;98332.75;;;16.56;51.33
20156;BME280;10238;49.556;10.956;2023-04-26T10:53:58;98333.63;;;16.63;51.52
20156;BME280;10238;49.556;10.956;2023-04-26T10:56:51;98323.66;;;16.78;51.12
20156;BME280;10238;49.556;10.956;2023-04-26T11:00:17;98328.34;;;16.97;50.36
20156;BME280;10238;49.556;10.956;2023-04-26T11:03:09;98331.25;;;17.02;49.77
20156;BME280;10238;49.556;10.956;2023-04-26T11:05:58;98333.03;;;17.16;50.16
20156;BME280;10238;49.556;10.956;2023-04-26T11:08:47;98333.41;;;17.13;50.62
20156;BME280;10238;49.556;10.956;2023-04-26T11:11:50;98325.44;;;17.26;50.02
20156;BME280;10238;49.556;10.956;2023-04-26T11:14:43;98326.47;;;17.25;48.58
20156;BME280;10238;49.556;10.956;2023-04-26T11:17:36;98327.75;;;17.36;49.51
20156;BME280;10238;49.556;10.956;2023-04-26T11:20:28;98320.03;;;17.47;50.52
20156;BME280;10238;49.556;10.956;2023-04-26T11:23:18;98318.59;;;17.51;49.97
20156;BME280;10238;49.556;10.956;2023-04-26T11:26:07;98309.34;;;17.60;49.40
20156;BME280;10238;49.556;10.956;2023-04-26T11:28:55;98308.94;;;17.63;49.73
20156;BME280;10238;49.556;10.956;2023-04-26T11:31:52;98305.56;;;17.55;47.84
20156;BME280;10238;49.556;10.956;2023-04-26T11:34:40;98299.66;;;17.72;47.88
20156;BME280;10238;49.556;10.956;2023-04-26T11:37:29;98297.03;;;17.92;48.61
20156;BME280;10238;49.556;10.956;2023-04-26T11:40:17;98296.50;;;18.16;49.29
20156;BME280;10238;49.556;10.956;2023-04-26T11:43:07;98293.25;;;18.40;50.28
20156;BME280;10238;49.556;10.956;2023-04-26T11:45:58;98295.53;;;18.62;50.85
20156;BME280;10238;49.556;10.956;2023-04-26T11:48:48;98291.19;;;18.81;48.30
20156;BME280;10238;49.556;10.956;2023-04-26T11:51:39;98287.66;;;18.93;47.37
20156;BME280;10238;49.556;10.956;2023-04-26T11:54:28;98281.19;;;19.20;46.36
20156;BME280;10238;49.556;10.956;2023-04-26T11:57:17;98283.88;;;19.40;47.87
20156;BME280;10238;49.556;10.956;2023-04-26T12:00:11;98287.31;;;19.54;47.03
20156;BME280;10238;49.556;10.956;2023-04-26T12:03:05;98287.25;;;19.80;46.29
20156;BME280;10238;49.556;10.956;2023-04-26T12:05:57;98283.22;;;19.95;45.29
20156;BME280;10238;49.556;10.956;2023-04-26T12:08:50;98281.94;;;19.98;44.43
20156;BME280;10238;49.556;10.956;2023-04-26T12:11:39;98288.25;;;19.79;43.12
20156;BME280;10238;49.556;10.956;2023-04-26T12:14:30;98287.03;;;19.75;42.99
20156;BME280;10238;49.556;10.956;2023-04-26T12:17:18;98283.31;;;19.76;44.62
20156;BME280;10238;49.556;10.956;2023-04-26T12:20:11;98280.38;;;19.77;45.31
20156;BME280;10238;49.556;10.956;2023-04-26T12:23:06;98280.00;;;19.74;43.67
20156;BME280;10238;49.556;10.956;2023-04-26T12:25:56;98271.28;;;19.78;45.04
20156;BME280;10238;49.556;10.956;2023-04-26T12:28:47;98276.19;;;19.88;46.11
20156;BME280;10238;49.556;10.956;2023-04-26T12:31:35;98272.00;;;19.98;47.52
20156;BME280;10238;49.556;10.956;2023-04-26T12:34:23;98274.06;;;19.96;45.96
20156;BME280;10238;49.556;10.956;2023-04-26T12:37:11;98273.72;;;19.86;44.59
20156;BME280;10238;49.556;10.956;2023-04-26T12:40:00;98263.41;;;19.70;43.74
20156;BME280;10238;49.556;10.956;2023-04-26T12:42:49;98271.53;;;19.64;43.73
20156;BME280;10238;49.556;10.956;2023-04-26T12:45:36;98266.38;;;19.62;44.37
20156;BME280;10238;49.556;10.956;2023-04-26T12:48:24;98263.84;;;19.67;44.99
20156;BME280;10238;49.556;10.956;2023-04-26T12:51:12;98262.16;;;19.73;44.70
20156;BME280;10238;49.556;10.956;2023-04-26T12:54:00;98255.28;;;19.33;39.60
20156;BME280;10238;49.556;10.956;2023-04-26T12:56:49;98261.72;;;19.76;46.87
20156;BME280;10238;49.556;10.956;2023-04-26T12:59:37;98253.31;;;19.97;46.21
20156;BME280;10238;49.556;10.956;2023-04-26T13:02:25;98259.94;;;20.01;45.28
20156;BME280;10238;49.556;10.956;2023-04-26T13:05:13;98253.97;;;19.86;44.20
20156;BME280;10238;49.556;10.956;2023-04-26T13:08:01;98254.19;;;19.91;44.10
20156;BME280;10238;49.556;10.956;2023-04-26T13:10:48;98250.78;;;20.02;45.03
20156;BME280;10238;49.556;10.956;2023-04-26T13:13:37;98257.00;;;20.09;45.50
20156;BME280;10238;49.556;10.956;2023-04-26T13:16:30;98254.06;;;20.10;44.34
20156;BME280;10238;49.556;10.956;2023-04-26T13:19:19;98259.06;;;20.07;42.47
20156;BME280;10238;49.556;10.956;2023-04-26T13:22:10;98253.53;;;19.95;43.46
20156;BME280;10238;49.556;10.956;2023-04-26T13:24:58;98254.59;;;19.88;42.20
20156;BME280;10238;49.556;10.956;2023-04-26T13:27:45;98251.66;;;19.96;43.39
20156;BME280;10238;49.556;10.956;2023-04-26T13:30:35;98249.84;;;19.90;43.37
20156;BME280;10238;49.556;10.956;2023-04-26T13:33:26;98252.00;;;19.68;42.29
20156;BME280;10238;49.556;10.956;2023-04-26T13:36:14;98248.81;;;19.84;43.02
20156;BME280;10238;49.556;10.956;2023-04-26T13:39:05;98250.69;;;19.84;43.16
20156;BME280;10238;49.556;10.956;2023-04-26T13:41:54;98245.44;;;19.51;41.54
20156;BME280;10238;49.556;10.956;2023-04-26T13:44:43;98245.09;;;19.79;42.78
20156;BME280;10238;49.556;10.956;2023-04-26T13:47:32;98247.63;;;19.16;42.70
20156;BME280;10238;49.556;10.956;2023-04-26T13:50:21;98250.97;;;20.07;43.49
20156;BME280;10238;49.556;10.956;2023-04-26T13:53:09;98248.06;;;20.15;42.00
20156;BME280;10238;49.556;10.956;2023-04-26T13:55:57;98255.69;;;20.18;41.84
20156;BME280;10238;49.556;10.956;2023-04-26T13:58:45;98252.25;;;20.35;44.28
20156;BME280;10238;49.556;10.956;2023-04-26T14:01:34;98255.88;;;20.54;44.63
20156;BME280;10238;49.556;10.956;2023-04-26T14:04:23;98245.38;;;20.64;45.02
20156;BME280;10238;49.556;10.956;2023-04-26T14:07:11;98246.47;;;20.81;45.55
20156;BME280;10238;49.556;10.956;2023-04-26T14:10:00;98250.09;;;20.93;44.97
20156;BME280;10238;49.556;10.956;2023-04-26T14:12:48;98236.59;;;20.93;43.63
20156;BME280;10238;49.556;10.956;2023-04-26T14:15:36;98230.16;;;20.94;43.32
20156;BME280;10238;49.556;10.956;2023-04-26T14:18:26;98246.38;;;20.94;42.13
20156;BME280;10238;49.556;10.956;2023-04-26T14:21:19;98244.59;;;21.06;43.02
20156;BME280;10238;49.556;10.956;2023-04-26T14:24:08;98237.47;;;21.11;42.99
20156;BME280;10238;49.556;10.956;2023-04-26T14:26:59;98243.31;;;21.08;42.76
20156;BME280;10238;49.556;10.956;2023-04-26T14:29:48;98239.28;;;21.36;45.47
20156;BME280;10238;49.556;10.956;2023-04-26T14:32:35;98232.31;;;21.46;44.12
20156;BME280;10238;49.556;10.956;2023-04-26T14:35:23;98230.03;;;21.43;42.97
20156;BME280;10238;49.556;10.956;2023-04-26T14:38:13;98240.69;;;21.38;40.53
20156;BME280;10238;49.556;10.956;2023-04-26T14:41:01;98241.31;;;21.22;40.82
20156;BME280;10238;49.556;10.956;2023-04-26T14:43:49;98235.31;;;21.20;40.36
20156;BME280;10238;49.556;10.956;2023-04-26T14:46:37;98238.25;;;21.18;41.00
20156;BME280;10238;49.556;10.956;2023-04-26T14:49:25;98233.34;;;21.09;41.35